Time,TemperatureF,DewpointF,PressureIn,WindDirection,WindDirectionDegrees,WindSpeedMPH,WindSpeedGustMPH,Humidity,HourlyPrecipIn,Conditions,Clouds,dailyrainin,SoftwareType,DateUTC
2013-01-22 00:01:00,45.9,19.1,30.11,WSW,252,0.0,0.0,34,0.00,,,0.00,Wunderground v.1.15,2013-01-22 07:01:00,
2013-01-22 00:06:00,45.7,18.2,30.11,WSW,252,0.0,0.0,33,0.00,,,0.00,Wunderground v.1.15,2013-01-22 07:06:00,
2013-01-22 00:11:00,45.3,16.4,30.12,SSE,155,0.0,0.0,31,0.00,,,0.00,Wunderground v.1.15,2013-01-22 07:11:00,
2013-01-22 00:16:00,45.4,15.7,30.12,SSE,155,0.0,0.0,30,0.00,,,0.00,Wunderground v.1.15,2013-01-22 07:16:00,
2013-01-22 00:21:00,45.5,15.0,30.12,ESE,114,0.0,1.0,29,0.00,,,0.00,Wunderground v.1.15,2013-01-22 07:21:00,
2013-01-22 00:26:00,45.7,14.4,30.12,East,100,1.0,1.0,28,0.00,,,0.00,Wunderground v.1.15,2013-01-22 07:26:00,
2013-01-22 00:31:00,46.5,15.1,30.11,ESE,118,0.0,1.0,28,0.00,,,0.00,Wunderground v.1.15,2013-01-22 07:31:00,
2013-01-22 00:36:00,47.1,14.8,30.11,ESE,116,0.0,1.0,27,0.00,,,0.00,Wunderground v.1.15,2013-01-22 07:36:00,
2013-01-22 00:41:00,46.8,14.5,30.12,ESE,117,0.0,1.0,27,0.00,,,0.00,Wunderground v.1.15,2013-01-22 07:41:00,
2013-01-22 00:46:00,46.0,14.7,30.12,ESE,115,0.0,1.0,28,0.00,,,0.00,Wunderground v.1.15,2013-01-22 07:46:00,
2013-01-22 00:51:00,45.5,15.0,30.12,ESE,118,0.0,0.0,29,0.00,,,0.00,Wunderground v.1.15,2013-01-22 07:51:00,
2013-01-22 00:56:00,45.6,14.3,30.12,ESE,113,1.0,2.0,28,0.00,,,0.00,Wunderground v.1.15,2013-01-22 07:56:00,
2013-01-22 01:02:00,46.7,14.4,30.12,ESE,113,2.0,2.0,27,0.00,,,0.00,Wunderground v.1.15,2013-01-22 08:02:00,
2013-01-22 01:07:00,47.3,14.1,30.12,ESE,115,1.0,2.0,26,0.00,,,0.00,Wunderground v.1.15,2013-01-22 08:07:00,
2013-01-22 01:12:00,47.2,14.0,30.12,North,358,0.0,2.0,26,0.00,,,0.00,Wunderground v.1.15,2013-01-22 08:12:00,
2013-01-22 01:17:00,45.1,13.9,30.12,North,359,0.0,2.0,28,0.00,,,0.00,Wunderground v.1.15,2013-01-22 08:17:00,
2013-01-22 01:22:00,44.8,14.4,30.13,ESE,121,0.0,0.0,29,0.00,,,0.00,Wunderground v.1.15,2013-01-22 08:22:00,
2013-01-22 01:27:00,44.1,13.8,30.13,SE,126,0.0,0.0,29,0.00,,,0.00,Wunderground v.1.15,2013-01-22 08:27:00,
2013-01-22 01:32:00,43.3,13.9,30.13,SE,125,0.0,0.0,30,0.00,,,0.00,Wunderground v.1.15,2013-01-22 08:32:00,
2013-01-22 01:38:00,42.4,13.9,30.13,WSW,240,0.0,1.0,31,0.00,,,0.00,Wunderground v.1.15,2013-01-22 08:38:00,
2013-01-22 01:43:00,41.6,15.3,30.14,SW,217,0.0,0.0,34,0.00,,,0.00,Wunderground v.1.15,2013-01-22 08:43:00,
2013-01-22 01:49:00,41.7,15.4,30.14,SW,218,0.0,0.0,34,0.00,,,0.00,Wunderground v.1.15,2013-01-22 08:49:00,
2013-01-22 01:54:00,41.8,14.8,30.14,SSE,162,0.0,0.0,33,0.00,,,0.00,Wunderground v.1.15,2013-01-22 08:54:00,
2013-01-22 01:59:00,42.0,14.9,30.14,ESE,111,0.0,0.0,33,0.00,,,0.00,Wunderground v.1.15,2013-01-22 08:59:00,
2013-01-22 02:04:00,42.5,14.7,30.14,East,101,0.0,1.0,32,0.00,,,0.00,Wunderground v.1.15,2013-01-22 09:04:00,
2013-01-22 02:09:00,43.3,14.6,30.14,East,82,0.0,1.0,31,0.00,,,0.00,Wunderground v.1.15,2013-01-22 09:09:00,
2013-01-22 02:14:00,44.0,14.5,30.14,East,86,1.0,1.0,30,0.00,,,0.00,Wunderground v.1.15,2013-01-22 09:14:00,
2013-01-22 02:19:00,44.5,15.7,30.14,ESE,113,2.0,2.0,31,0.00,,,0.00,Wunderground v.1.15,2013-01-22 09:19:00,
2013-01-22 02:24:00,44.2,15.4,30.14,ESE,105,2.0,3.0,31,0.00,,,0.00,Wunderground v.1.15,2013-01-22 09:24:00,
2013-01-22 02:30:00,44.3,14.8,30.14,ESE,110,3.0,3.0,30,0.00,,,0.00,Wunderground v.1.15,2013-01-22 09:30:00,
2013-01-22 02:35:00,44.2,15.4,30.13,SE,135,1.0,3.0,31,0.00,,,0.00,Wunderground v.1.15,2013-01-22 09:35:00,
2013-01-22 02:40:00,43.5,14.8,30.13,ESE,122,1.0,1.0,31,0.00,,,0.00,Wunderground v.1.15,2013-01-22 09:40:00,
2013-01-22 02:45:00,43.2,14.6,30.14,ESE,110,0.0,1.0,31,0.00,,,0.00,Wunderground v.1.15,2013-01-22 09:45:00,
2013-01-22 02:50:00,43.3,14.6,30.13,ESE,114,1.0,1.0,31,0.00,,,0.00,Wunderground v.1.15,2013-01-22 09:50:00,
2013-01-22 02:55:00,43.2,15.3,30.13,ESE,123,0.0,1.0,32,0.00,,,0.00,Wunderground v.1.15,2013-01-22 09:55:00,
2013-01-22 03:00:00,42.7,14.8,30.13,ESE,122,0.0,0.0,32,0.00,,,0.00,Wunderground v.1.15,2013-01-22 10:00:00,
2013-01-22 03:05:00,42.3,15.2,30.13,ESE,111,0.0,1.0,33,0.00,,,0.00,Wunderground v.1.15,2013-01-22 10:05:00,
2013-01-22 03:10:00,42.0,15.6,30.14,NNW,335,0.0,0.0,34,0.00,,,0.00,Wunderground v.1.15,2013-01-22 10:10:00,
2013-01-22 03:15:00,40.6,13.7,30.14,NNW,333,0.0,1.0,33,0.00,,,0.00,Wunderground v.1.15,2013-01-22 10:15:00,
2013-01-22 03:20:00,40.1,14.6,30.14,NNW,333,0.0,0.0,35,0.00,,,0.00,Wunderground v.1.15,2013-01-22 10:20:00,
2013-01-22 03:25:00,40.1,14.6,30.14,ENE,76,0.0,0.0,35,0.00,,,0.00,Wunderground v.1.15,2013-01-22 10:25:00,
2013-01-22 03:30:00,39.9,15.7,30.14,ESE,122,0.0,0.0,37,0.00,,,0.00,Wunderground v.1.15,2013-01-22 10:30:00,
2013-01-22 03:35:00,39.9,14.4,30.13,ESE,121,0.0,0.0,35,0.00,,,0.00,Wunderground v.1.15,2013-01-22 10:35:00,
2013-01-22 03:40:00,40.1,15.2,30.13,ESE,121,1.0,1.0,36,0.00,,,0.00,Wunderground v.1.15,2013-01-22 10:40:00,
2013-01-22 03:45:00,40.1,15.2,30.13,SE,126,0.0,1.0,36,0.00,,,0.00,Wunderground v.1.15,2013-01-22 10:45:00,
2013-01-22 03:50:00,40.3,15.4,30.13,ESE,120,1.0,1.0,36,0.00,,,0.00,Wunderground v.1.15,2013-01-22 10:50:00,
2013-01-22 03:55:00,40.5,15.6,30.13,ESE,120,0.0,2.0,36,0.00,,,0.00,Wunderground v.1.15,2013-01-22 10:55:00,
2013-01-22 04:00:00,40.5,15.6,30.14,ESE,121,0.0,1.0,36,0.00,,,0.00,Wunderground v.1.15,2013-01-22 11:00:00,
2013-01-22 04:05:00,40.4,15.5,30.14,SE,134,0.0,1.0,36,0.00,,,0.00,Wunderground v.1.15,2013-01-22 11:05:00,
2013-01-22 04:10:00,40.2,16.0,30.14,SE,134,0.0,1.0,37,0.00,,,0.00,Wunderground v.1.15,2013-01-22 11:10:00,
2013-01-22 04:16:00,39.7,15.5,30.13,SE,132,1.0,2.0,37,0.00,,,0.00,Wunderground v.1.15,2013-01-22 11:16:00,
2013-01-22 04:21:00,39.5,16.0,30.13,SE,134,0.0,0.0,38,0.00,,,0.00,Wunderground v.1.15,2013-01-22 11:21:00,
2013-01-22 04:26:00,39.6,16.0,30.13,SW,236,0.0,1.0,38,0.00,,,0.00,Wunderground v.1.15,2013-01-22 11:26:00,
2013-01-22 04:32:00,39.9,16.3,30.13,WSW,238,0.0,0.0,38,0.00,,,0.00,Wunderground v.1.15,2013-01-22 11:32:00,
2013-01-22 04:37:00,39.6,16.0,30.13,SW,236,0.0,0.0,38,0.00,,,0.00,Wunderground v.1.15,2013-01-22 11:37:00,
2013-01-22 04:42:00,39.2,16.9,30.12,SSW,203,0.0,0.0,40,0.00,,,0.00,Wunderground v.1.15,2013-01-22 11:42:00,
2013-01-22 04:47:00,39.0,16.1,30.13,NNE,27,0.0,1.0,39,0.00,,,0.00,Wunderground v.1.15,2013-01-22 11:47:00,
2013-01-22 04:52:00,39.2,15.7,30.12,NNE,25,0.0,1.0,38,0.00,,,0.00,Wunderground v.1.15,2013-01-22 11:52:00,
2013-01-22 04:57:00,39.3,14.5,30.13,NNE,26,0.0,1.0,36,0.00,,,0.00,Wunderground v.1.15,2013-01-22 11:57:00,
2013-01-22 05:02:00,39.2,15.1,30.13,NE,53,0.0,0.0,37,0.00,,,0.00,Wunderground v.1.15,2013-01-22 12:02:00,
2013-01-22 05:07:00,39.2,15.1,30.13,ESE,105,0.0,1.0,37,0.00,,,0.00,Wunderground v.1.15,2013-01-22 12:07:00,
2013-01-22 05:12:00,39.1,15.0,30.13,North,3,2.0,2.0,37,0.00,,,0.00,Wunderground v.1.15,2013-01-22 12:12:00,
2013-01-22 05:17:00,39.2,14.4,30.13,ENE,73,0.0,2.0,36,0.00,,,0.00,Wunderground v.1.15,2013-01-22 12:17:00,
2013-01-22 05:22:00,39.2,14.4,30.13,NE,44,0.0,0.0,36,0.00,,,0.00,Wunderground v.1.15,2013-01-22 12:22:00,
2013-01-22 05:27:00,39.3,13.9,30.13,North,356,1.0,2.0,35,0.00,,,0.00,Wunderground v.1.15,2013-01-22 12:27:00,
2013-01-22 05:32:00,39.1,14.4,30.14,NNE,15,0.0,2.0,36,0.00,,,0.00,Wunderground v.1.15,2013-01-22 12:32:00,
2013-01-22 05:37:00,38.6,14.5,30.14,ENE,72,0.0,2.0,37,0.00,,,0.00,Wunderground v.1.15,2013-01-22 12:37:00,
2013-01-22 05:42:00,38.8,15.3,30.14,ENE,59,0.0,2.0,38,0.00,,,0.00,Wunderground v.1.15,2013-01-22 12:42:00,
2013-01-22 05:47:00,39.4,15.3,30.14,NE,51,0.0,2.0,37,0.00,,,0.00,Wunderground v.1.15,2013-01-22 12:47:00,
2013-01-22 05:52:00,40.1,15.2,30.14,North,5,0.0,1.0,36,0.00,,,0.00,Wunderground v.1.15,2013-01-22 12:52:00,
2013-01-22 05:57:00,40.7,15.1,30.14,ENE,72,0.0,2.0,35,0.00,,,0.00,Wunderground v.1.15,2013-01-22 12:57:00,
2013-01-22 06:03:00,41.1,15.5,30.14,NNW,348,0.0,1.0,35,0.00,,,0.00,Wunderground v.1.15,2013-01-22 13:03:00,
2013-01-22 06:08:00,41.2,15.6,30.14,NNE,22,0.0,5.0,35,0.00,,,0.00,Wunderground v.1.15,2013-01-22 13:08:00,
2013-01-22 06:13:00,41.0,15.4,30.14,NNE,16,0.0,1.0,35,0.00,,,0.00,Wunderground v.1.15,2013-01-22 13:13:00,
2013-01-22 06:18:00,40.9,16.0,30.14,NNE,15,2.0,5.0,36,0.00,,,0.00,Wunderground v.1.15,2013-01-22 13:18:00,
2013-01-22 06:23:00,40.4,14.9,30.15,North,8,0.0,3.0,35,0.00,,,0.00,Wunderground v.1.15,2013-01-22 13:23:00,
2013-01-22 06:28:00,39.7,14.9,30.15,North,6,2.0,3.0,36,0.00,,,0.00,Wunderground v.1.15,2013-01-22 13:28:00,
2013-01-22 06:33:00,39.1,14.4,30.15,NNE,18,1.0,2.0,36,0.00,,,0.00,Wunderground v.1.15,2013-01-22 13:33:00,
2013-01-22 06:38:00,38.5,15.1,30.15,North,360,1.0,4.0,38,0.00,,,0.00,Wunderground v.1.15,2013-01-22 13:38:00,
2013-01-22 06:43:00,38.0,14.0,30.15,NW,320,2.0,4.0,37,0.00,,,0.00,Wunderground v.1.15,2013-01-22 13:43:00,
2013-01-22 06:48:00,37.2,13.3,30.15,WNW,290,0.0,4.0,37,0.00,,,0.00,Wunderground v.1.15,2013-01-22 13:48:00,
2013-01-22 06:53:00,36.9,14.2,30.16,WNW,288,0.0,2.0,39,0.00,,,0.00,Wunderground v.1.15,2013-01-22 13:53:00,
2013-01-22 06:58:00,37.1,14.4,30.16,WNW,289,0.0,2.0,39,0.00,,,0.00,Wunderground v.1.15,2013-01-22 13:58:00,
2013-01-22 07:03:00,37.0,14.9,30.16,North,359,0.0,1.0,40,0.00,,,0.00,Wunderground v.1.15,2013-01-22 14:03:00,
2013-01-22 07:08:00,36.9,15.4,30.16,North,359,0.0,1.0,41,0.00,,,0.00,Wunderground v.1.15,2013-01-22 14:08:00,
2013-01-22 07:13:00,36.7,15.2,30.16,North,359,0.0,0.0,41,0.00,,,0.00,Wunderground v.1.15,2013-01-22 14:13:00,
2013-01-22 07:18:00,36.7,15.7,30.16,North,359,0.0,1.0,42,0.00,,,0.00,Wunderground v.1.15,2013-01-22 14:18:00,
2013-01-22 07:23:00,36.7,15.7,30.16,North,359,0.0,0.0,42,0.00,,,0.00,Wunderground v.1.15,2013-01-22 14:23:00,
2013-01-22 07:28:00,36.9,15.9,30.16,ENE,60,0.0,1.0,42,0.00,,,0.00,Wunderground v.1.15,2013-01-22 14:28:00,
2013-01-22 07:33:00,37.3,15.2,30.16,NE,46,0.0,0.0,40,0.00,,,0.00,Wunderground v.1.15,2013-01-22 14:33:00,
2013-01-22 07:38:00,37.8,15.0,30.16,NE,47,0.0,1.0,39,0.00,,,0.00,Wunderground v.1.15,2013-01-22 14:38:00,
2013-01-22 07:43:00,38.5,15.1,30.16,ENE,63,0.0,1.0,38,0.00,,,0.00,Wunderground v.1.15,2013-01-22 14:43:00,
2013-01-22 07:48:00,39.5,15.3,30.16,East,80,0.0,1.0,37,0.00,,,0.00,Wunderground v.1.15,2013-01-22 14:48:00,
2013-01-22 07:53:00,40.4,14.9,30.16,East,79,0.0,3.0,35,0.00,,,0.00,Wunderground v.1.15,2013-01-22 14:53:00,
2013-01-22 07:58:00,40.9,15.3,30.17,NNE,27,0.0,3.0,35,0.00,,,0.00,Wunderground v.1.15,2013-01-22 14:58:00,
2013-01-22 08:03:00,41.3,15.0,30.17,NNE,29,0.0,1.0,34,0.00,,,0.00,Wunderground v.1.15,2013-01-22 15:03:00,
2013-01-22 08:08:00,42.1,15.7,30.16,North,355,0.0,1.0,34,0.00,,,0.00,Wunderground v.1.15,2013-01-22 15:08:00,
2013-01-22 08:14:00,42.6,15.5,30.17,NE,37,0.0,1.0,33,0.00,,,0.00,Wunderground v.1.15,2013-01-22 15:14:00,
2013-01-22 08:19:00,41.9,15.5,30.17,NNE,15,0.0,2.0,34,0.00,,,0.00,Wunderground v.1.15,2013-01-22 15:19:00,
2013-01-22 08:24:00,41.7,15.4,30.17,North,5,0.0,1.0,34,0.00,,,0.00,Wunderground v.1.15,2013-01-22 15:24:00,
2013-01-22 08:29:00,42.3,15.9,30.17,North,11,1.0,1.0,34,0.00,,,0.00,Wunderground v.1.15,2013-01-22 15:29:00,
2013-01-22 08:34:00,43.7,16.4,30.17,ENE,60,0.0,1.0,33,0.00,,,0.00,Wunderground v.1.15,2013-01-22 15:34:00,
2013-01-22 08:39:00,44.6,16.5,30.17,NNE,15,1.0,3.0,32,0.00,,,0.00,Wunderground v.1.15,2013-01-22 15:39:00,
2013-01-22 08:44:00,44.2,16.2,30.17,North,9,1.0,4.0,32,0.00,,,0.00,Wunderground v.1.15,2013-01-22 15:44:00,
2013-01-22 08:49:00,43.9,16.6,30.17,NNW,333,3.0,4.0,33,0.00,,,0.00,Wunderground v.1.15,2013-01-22 15:49:00,
2013-01-22 08:54:00,44.0,16.7,30.17,NNE,29,1.0,4.0,33,0.00,,,0.00,Wunderground v.1.15,2013-01-22 15:54:00,
2013-01-22 08:59:00,44.5,17.1,30.17,North,1,0.0,4.0,33,0.00,,,0.00,Wunderground v.1.15,2013-01-22 15:59:00,
2013-01-22 09:04:00,45.5,17.3,30.18,NNE,23,0.0,1.0,32,0.00,,,0.00,Wunderground v.1.15,2013-01-22 16:04:00,
2013-01-22 09:09:00,46.7,17.6,30.18,NNE,23,0.0,1.0,31,0.00,,,0.00,Wunderground v.1.15,2013-01-22 16:09:00,
2013-01-22 09:14:00,47.3,18.1,30.18,NNE,23,0.0,1.0,31,0.00,,,0.00,Wunderground v.1.15,2013-01-22 16:14:00,
2013-01-22 09:19:00,48.0,18.0,30.18,North,355,0.0,1.0,30,0.00,,,0.00,Wunderground v.1.15,2013-01-22 16:19:00,
2013-01-22 09:24:00,48.9,18.8,30.18,NNE,13,0.0,1.0,30,0.00,,,0.00,Wunderground v.1.15,2013-01-22 16:24:00,
2013-01-22 09:29:00,50.1,19.0,30.18,ENE,75,0.0,1.0,29,0.00,,,0.00,Wunderground v.1.15,2013-01-22 16:29:00,
2013-01-22 09:34:00,51.3,19.3,30.18,ENE,63,0.0,1.0,28,0.00,,,0.00,Wunderground v.1.15,2013-01-22 16:34:00,
2013-01-22 09:39:00,52.5,19.4,30.18,North,354,1.0,1.0,27,0.00,,,0.00,Wunderground v.1.15,2013-01-22 16:39:00,
2013-01-22 09:44:00,53.9,17.9,30.18,NW,321,2.0,2.0,24,0.00,,,0.00,Wunderground v.1.15,2013-01-22 16:44:00,
2013-01-22 09:49:00,55.3,17.0,30.18,NNW,348,1.0,7.0,22,0.00,,,0.00,Wunderground v.1.15,2013-01-22 16:49:00,
2013-01-22 09:55:00,56.8,16.1,30.18,NW,323,3.0,9.0,20,0.00,,,0.00,Wunderground v.1.15,2013-01-22 16:55:00,
2013-01-22 10:00:00,57.8,15.7,30.18,North,11,3.0,9.0,19,0.00,,,0.00,Wunderground v.1.15,2013-01-22 17:00:00,
2013-01-22 10:05:00,58.5,16.3,30.18,North,4,6.0,8.0,19,0.00,,,0.00,Wunderground v.1.15,2013-01-22 17:05:00,
2013-01-22 10:10:00,59.0,15.5,30.18,NNW,347,4.0,4.0,18,0.00,,,0.00,Wunderground v.1.15,2013-01-22 17:10:00,
2013-01-22 10:15:00,59.4,15.8,30.19,NNE,27,4.0,7.0,18,0.00,,,0.00,Wunderground v.1.15,2013-01-22 17:15:00,
2013-01-22 10:20:00,59.8,14.8,30.19,NE,54,4.0,4.0,17,0.00,,,0.00,Wunderground v.1.15,2013-01-22 17:20:00,
2013-01-22 10:25:00,60.1,15.1,30.19,NE,35,6.0,9.0,17,0.00,,,0.00,Wunderground v.1.15,2013-01-22 17:25:00,
2013-01-22 10:30:00,60.4,15.3,30.19,NE,44,2.0,4.0,17,0.00,,,0.00,Wunderground v.1.15,2013-01-22 17:30:00,
2013-01-22 10:35:00,60.8,15.6,30.19,NNE,26,10.0,10.0,17,0.00,,,0.00,Wunderground v.1.15,2013-01-22 17:35:00,
2013-01-22 10:40:00,61.3,16.1,30.19,NNE,27,3.0,6.0,17,0.00,,,0.00,Wunderground v.1.15,2013-01-22 17:40:00,
2013-01-22 10:45:00,61.6,14.9,30.19,NNW,345,3.0,6.0,16,0.00,,,0.00,Wunderground v.1.15,2013-01-22 17:45:00,
2013-01-22 10:50:00,61.6,14.9,30.19,NW,323,5.0,7.0,16,0.00,,,0.00,Wunderground v.1.15,2013-01-22 17:50:00,
2013-01-22 10:55:00,61.7,15.0,30.19,NNE,25,2.0,8.0,16,0.00,,,0.00,Wunderground v.1.15,2013-01-22 17:55:00,
2013-01-22 11:00:00,62.2,13.9,30.19,NNE,16,4.0,6.0,15,0.00,,,0.00,Wunderground v.1.15,2013-01-22 18:00:00,
2013-01-22 11:05:00,62.5,14.2,30.19,SE,135,2.0,6.0,15,0.00,,,0.00,Wunderground v.1.15,2013-01-22 18:05:00,
2013-01-22 11:10:00,62.7,14.3,30.19,North,355,3.0,3.0,15,0.00,,,0.00,Wunderground v.1.15,2013-01-22 18:10:00,
2013-01-22 11:15:00,62.9,14.5,30.19,WNW,297,2.0,6.0,15,0.00,,,0.00,Wunderground v.1.15,2013-01-22 18:15:00,
2013-01-22 11:20:00,63.2,14.7,30.19,NE,37,2.0,6.0,15,0.00,,,0.00,Wunderground v.1.15,2013-01-22 18:20:00,
2013-01-22 11:25:00,63.5,13.4,30.19,WNW,300,1.0,6.0,14,0.00,,,0.00,Wunderground v.1.15,2013-01-22 18:25:00,
2013-01-22 11:30:00,63.9,13.7,30.18,NNE,30,2.0,2.0,14,0.00,,,0.00,Wunderground v.1.15,2013-01-22 18:30:00,
2013-01-22 11:35:00,64.0,13.8,30.18,SW,219,1.0,8.0,14,0.00,,,0.00,Wunderground v.1.15,2013-01-22 18:35:00,
2013-01-22 11:40:00,64.3,14.0,30.18,NNE,14,1.0,7.0,14,0.00,,,0.00,Wunderground v.1.15,2013-01-22 18:40:00,
2013-01-22 11:45:00,64.7,14.3,30.18,North,358,1.0,7.0,14,0.00,,,0.00,Wunderground v.1.15,2013-01-22 18:45:00,
2013-01-22 11:50:00,65.0,14.6,30.18,NE,40,1.0,6.0,14,0.00,,,0.00,Wunderground v.1.15,2013-01-22 18:50:00,
2013-01-22 11:55:00,65.5,15.0,30.18,NNE,26,1.0,6.0,14,0.00,,,0.00,Wunderground v.1.15,2013-01-22 18:55:00,
2013-01-22 12:00:00,65.7,13.4,30.18,ENE,63,1.0,2.0,13,0.00,,,0.00,Wunderground v.1.15,2013-01-22 19:00:00,
2013-01-22 12:06:00,65.9,13.6,30.17,NNW,333,2.0,10.0,13,0.00,,,0.00,Wunderground v.1.15,2013-01-22 19:06:00,
2013-01-22 12:11:00,66.1,13.8,30.17,NNW,333,1.0,3.0,13,0.00,,,0.00,Wunderground v.1.15,2013-01-22 19:11:00,
2013-01-22 12:16:00,66.4,14.0,30.17,ENE,61,2.0,6.0,13,0.00,,,0.00,Wunderground v.1.15,2013-01-22 19:16:00,
2013-01-22 12:21:00,66.7,14.2,30.17,ENE,61,3.0,4.0,13,0.00,,,0.00,Wunderground v.1.15,2013-01-22 19:21:00,
2013-01-22 12:26:00,67.0,14.5,30.16,ESE,108,1.0,4.0,13,0.00,,,0.00,Wunderground v.1.15,2013-01-22 19:26:00,
2013-01-22 12:31:00,66.9,14.4,30.16,NE,36,6.0,9.0,13,0.00,,,0.00,Wunderground v.1.15,2013-01-22 19:31:00,
2013-01-22 12:36:00,66.9,14.4,30.15,NNE,30,2.0,10.0,13,0.00,,,0.00,Wunderground v.1.15,2013-01-22 19:36:00,
2013-01-22 12:41:00,67.2,14.6,30.15,North,8,8.0,8.0,13,0.00,,,0.00,Wunderground v.1.15,2013-01-22 19:41:00,
2013-01-22 12:46:00,67.4,14.8,30.15,NNW,328,2.0,10.0,13,0.00,,,0.00,Wunderground v.1.15,2013-01-22 19:46:00,
2013-01-22 12:51:00,67.8,16.8,30.15,SSW,205,0.0,3.0,14,0.00,,,0.00,Wunderground v.1.15,2013-01-22 19:51:00,
2013-01-22 12:56:00,68.5,15.7,30.14,NE,42,2.0,8.0,13,0.00,,,0.00,Wunderground v.1.15,2013-01-22 19:56:00,
2013-01-22 13:01:00,68.8,14.1,30.14,North,354,6.0,11.0,12,0.00,,,0.00,Wunderground v.1.15,2013-01-22 20:01:00,
2013-01-22 13:06:00,68.9,14.1,30.14,NE,53,3.0,11.0,12,0.00,,,0.00,Wunderground v.1.15,2013-01-22 20:06:00,
2013-01-22 13:11:00,69.5,14.6,30.13,NE,44,2.0,3.0,12,0.00,,,0.00,Wunderground v.1.15,2013-01-22 20:11:00,
2013-01-22 13:16:00,69.9,14.9,30.13,NW,307,2.0,8.0,12,0.00,,,0.00,Wunderground v.1.15,2013-01-22 20:16:00,
2013-01-22 13:21:00,69.7,16.6,30.13,North,8,7.0,7.0,13,0.00,,,0.00,Wunderground v.1.15,2013-01-22 20:21:00,
2013-01-22 13:26:00,69.8,16.7,30.12,NNW,341,7.0,10.0,13,0.00,,,0.00,Wunderground v.1.15,2013-01-22 20:26:00,
2013-01-22 13:31:00,69.9,16.8,30.12,NNE,19,2.0,13.0,13,0.00,,,0.00,Wunderground v.1.15,2013-01-22 20:31:00,
2013-01-22 13:36:00,70.1,15.1,30.12,WNW,285,1.0,13.0,12,0.00,,,0.00,Wunderground v.1.15,2013-01-22 20:36:00,
2013-01-22 13:41:00,70.4,13.3,30.12,NNW,333,1.0,8.0,11,0.00,,,0.00,Wunderground v.1.15,2013-01-22 20:41:00,
2013-01-22 13:47:00,70.8,13.6,30.11,NW,316,1.0,8.0,11,0.00,,,0.00,Wunderground v.1.15,2013-01-22 20:47:00,
2013-01-22 13:52:00,70.9,13.7,30.11,NNE,32,2.0,6.0,11,0.00,,,0.00,Wunderground v.1.15,2013-01-22 20:52:00,
2013-01-22 13:57:00,71.0,11.6,30.11,North,8,8.0,11.0,10,0.00,,,0.00,Wunderground v.1.15,2013-01-22 20:57:00,
2013-01-22 14:02:00,71.3,14.0,30.11,East,92,1.0,5.0,11,0.00,,,0.00,Wunderground v.1.15,2013-01-22 21:02:00,
2013-01-22 14:07:00,71.7,14.3,30.11,North,8,2.0,8.0,11,0.00,,,0.00,Wunderground v.1.15,2013-01-22 21:07:00,
2013-01-22 14:12:00,72.1,12.5,30.10,East,101,2.0,4.0,10,0.00,,,0.00,Wunderground v.1.15,2013-01-22 21:12:00,
2013-01-22 14:17:00,72.3,14.8,30.10,SSE,166,4.0,6.0,11,0.00,,,0.00,Wunderground v.1.15,2013-01-22 21:17:00,
2013-01-22 14:22:00,72.5,14.9,30.10,SE,131,1.0,7.0,11,0.00,,,0.00,Wunderground v.1.15,2013-01-22 21:22:00,
2013-01-22 14:27:00,72.7,12.9,30.10,WSW,246,1.0,7.0,10,0.00,,,0.00,Wunderground v.1.15,2013-01-22 21:27:00,
2013-01-22 14:31:00,72.6,12.8,30.10,West,273,4.0,6.0,10,0.00,,,0.00,Wunderground v.1.15,2013-01-22 21:31:00,
2013-01-22 14:36:00,72.6,12.8,30.10,NNE,26,2.0,7.0,10,0.00,,,0.00,Wunderground v.1.15,2013-01-22 21:36:00,
2013-01-22 14:41:00,72.8,13.0,30.09,North,8,4.0,4.0,10,0.00,,,0.00,Wunderground v.1.15,2013-01-22 21:41:00,
2013-01-22 14:46:00,72.9,13.1,30.09,SSE,160,2.0,10.0,10,0.00,,,0.00,Wunderground v.1.15,2013-01-22 21:46:00,
2013-01-22 14:51:00,73.1,13.2,30.09,ENE,63,3.0,3.0,10,0.00,,,0.00,Wunderground v.1.15,2013-01-22 21:51:00,
2013-01-22 14:56:00,73.2,10.9,30.09,North,354,3.0,6.0,9,0.00,,,0.00,Wunderground v.1.15,2013-01-22 21:56:00,
2013-01-22 15:01:00,73.3,11.0,30.09,North,359,5.0,7.0,9,0.00,,,0.00,Wunderground v.1.15,2013-01-22 22:01:00,
2013-01-22 15:06:00,73.6,11.2,30.09,WNW,295,3.0,7.0,9,0.00,,,0.00,Wunderground v.1.15,2013-01-22 22:06:00,
2013-01-22 15:11:00,73.7,11.3,30.09,NNW,333,1.0,2.0,9,0.00,,,0.00,Wunderground v.1.15,2013-01-22 22:11:00,
2013-01-22 15:17:00,73.7,11.3,30.09,WSW,245,1.0,10.0,9,0.00,,,0.00,Wunderground v.1.15,2013-01-22 22:17:00,
2013-01-22 15:22:00,74.1,11.6,30.08,NNW,341,3.0,3.0,9,0.00,,,0.00,Wunderground v.1.15,2013-01-22 22:22:00,
2013-01-22 15:27:00,74.0,11.5,30.08,West,259,3.0,11.0,9,0.00,,,0.00,Wunderground v.1.15,2013-01-22 22:27:00,
2013-01-22 15:32:00,74.1,11.6,30.08,NNE,16,2.0,3.0,9,0.00,,,0.00,Wunderground v.1.15,2013-01-22 22:32:00,
2013-01-22 15:37:00,74.4,11.8,30.08,NE,39,2.0,6.0,9,0.00,,,0.00,Wunderground v.1.15,2013-01-22 22:37:00,
2013-01-22 15:42:00,74.5,11.9,30.08,NE,41,3.0,9.0,9,0.00,,,0.00,Wunderground v.1.15,2013-01-22 22:42:00,
2013-01-22 15:47:00,74.5,11.9,30.07,SSW,195,2.0,10.0,9,0.00,,,0.00,Wunderground v.1.15,2013-01-22 22:47:00,
2013-01-22 15:52:00,74.7,9.4,30.07,SSW,194,0.0,4.0,8,0.00,,,0.00,Wunderground v.1.15,2013-01-22 22:52:00,
2013-01-22 15:57:00,74.9,9.6,30.07,NE,47,3.0,6.0,8,0.00,,,0.00,Wunderground v.1.15,2013-01-22 22:57:00,
2013-01-22 16:02:00,74.9,9.6,30.07,North,6,4.0,6.0,8,0.00,,,0.00,Wunderground v.1.15,2013-01-22 23:02:00,
2013-01-22 16:07:00,75.2,9.8,30.07,WNW,284,3.0,6.0,8,0.00,,,0.00,Wunderground v.1.15,2013-01-22 23:07:00,
2013-01-22 16:12:00,75.2,9.8,30.07,East,101,2.0,6.0,8,0.00,,,0.00,Wunderground v.1.15,2013-01-22 23:12:00,
2013-01-22 16:17:00,75.1,9.7,30.07,NE,34,3.0,12.0,8,0.00,,,0.00,Wunderground v.1.15,2013-01-22 23:17:00,
2013-01-22 16:22:00,74.8,12.1,30.07,NNE,14,4.0,5.0,9,0.00,,,0.00,Wunderground v.1.15,2013-01-22 23:22:00,
2013-01-22 16:27:00,74.7,9.4,30.07,North,6,2.0,7.0,8,0.00,,,0.00,Wunderground v.1.15,2013-01-22 23:27:00,
2013-01-22 16:32:00,74.5,9.3,30.07,East,82,3.0,10.0,8,0.00,,,0.00,Wunderground v.1.15,2013-01-22 23:32:00,
2013-01-22 16:37:00,74.4,11.8,30.07,NE,44,0.0,10.0,9,0.00,,,0.00,Wunderground v.1.15,2013-01-22 23:37:00,
2013-01-22 16:42:00,74.4,11.8,30.07,NNE,15,3.0,4.0,9,0.00,,,0.00,Wunderground v.1.15,2013-01-22 23:42:00,
2013-01-22 16:47:00,74.2,11.7,30.07,WNW,298,0.0,9.0,9,0.00,,,0.00,Wunderground v.1.15,2013-01-22 23:47:00,
2013-01-22 16:52:00,74.0,11.5,30.07,NNE,26,5.0,11.0,9,0.00,,,0.00,Wunderground v.1.15,2013-01-22 23:52:00,
2013-01-22 16:57:00,73.6,13.6,30.07,NNW,342,3.0,11.0,10,0.00,,,0.00,Wunderground v.1.15,2013-01-22 23:57:00,
2013-01-22 17:02:00,73.1,13.2,30.07,North,359,2.0,9.0,10,0.00,,,0.00,Wunderground v.1.15,2013-01-23 00:02:00,
2013-01-22 17:07:00,72.6,12.8,30.07,North,11,2.0,9.0,10,0.00,,,0.00,Wunderground v.1.15,2013-01-23 00:07:00,
2013-01-22 17:12:00,72.2,14.7,30.07,NNW,335,3.0,6.0,11,0.00,,,0.00,Wunderground v.1.15,2013-01-23 00:12:00,
2013-01-22 17:17:00,71.7,14.3,30.07,NNE,30,2.0,6.0,11,0.00,,,0.00,Wunderground v.1.15,2013-01-23 00:17:00,
2013-01-22 17:22:00,71.2,15.9,30.07,ENE,58,1.0,3.0,12,0.00,,,0.00,Wunderground v.1.15,2013-01-23 00:22:00,
2013-01-22 17:27:00,70.7,15.5,30.07,North,9,1.0,3.0,12,0.00,,,0.00,Wunderground v.1.15,2013-01-23 00:27:00,
2013-01-22 17:32:00,70.3,15.2,30.07,North,349,1.0,2.0,12,0.00,,,0.00,Wunderground v.1.15,2013-01-23 00:32:00,
2013-01-22 17:37:00,70.1,16.9,30.07,North,1,0.0,3.0,13,0.00,,,0.00,Wunderground v.1.15,2013-01-23 00:37:00,
2013-01-22 17:42:00,69.6,16.5,30.07,North,1,0.0,1.0,13,0.00,,,0.00,Wunderground v.1.15,2013-01-23 00:42:00,
2013-01-22 17:47:00,68.9,17.7,30.08,North,1,0.0,1.0,14,0.00,,,0.00,Wunderground v.1.15,2013-01-23 00:47:00,
2013-01-22 17:52:00,68.3,17.2,30.08,North,1,0.0,0.0,14,0.00,,,0.00,Wunderground v.1.15,2013-01-23 00:52:00,
2013-01-22 17:57:00,67.8,16.8,30.08,North,1,0.0,0.0,14,0.00,,,0.00,Wunderground v.1.15,2013-01-23 00:57:00,
2013-01-22 18:02:00,67.3,18.0,30.08,North,3,0.0,1.0,15,0.00,,,0.00,Wunderground v.1.15,2013-01-23 01:02:00,
2013-01-22 18:07:00,67.1,17.8,30.08,ENE,77,1.0,1.0,15,0.00,,,0.00,Wunderground v.1.15,2013-01-23 01:07:00,
2013-01-22 18:12:00,66.9,19.2,30.07,ENE,72,1.0,1.0,16,0.00,,,0.00,Wunderground v.1.15,2013-01-23 01:12:00,
2013-01-22 18:17:00,66.6,19.0,30.08,WSW,240,2.0,2.0,16,0.00,,,0.00,Wunderground v.1.15,2013-01-23 01:17:00,
2013-01-22 18:22:00,65.1,19.2,30.08,West,274,0.0,1.0,17,0.00,,,0.00,Wunderground v.1.15,2013-01-23 01:22:00,
2013-01-22 18:27:00,64.8,20.2,30.08,West,274,0.0,1.0,18,0.00,,,0.00,Wunderground v.1.15,2013-01-23 01:27:00,
2013-01-22 18:32:00,64.3,19.8,30.08,West,274,0.0,0.0,18,0.00,,,0.00,Wunderground v.1.15,2013-01-23 01:32:00,
2013-01-22 18:37:00,64.3,19.8,30.08,West,274,0.0,1.0,18,0.00,,,0.00,Wunderground v.1.15,2013-01-23 01:37:00,
2013-01-22 18:42:00,64.2,19.8,30.08,ESE,102,1.0,2.0,18,0.00,,,0.00,Wunderground v.1.15,2013-01-23 01:42:00,
2013-01-22 18:47:00,64.0,19.6,30.08,East,79,3.0,3.0,18,0.00,,,0.00,Wunderground v.1.15,2013-01-23 01:47:00,
2013-01-22 18:52:00,63.8,19.4,30.08,ENE,70,2.0,4.0,18,0.00,,,0.00,Wunderground v.1.15,2013-01-23 01:52:00,
2013-01-22 18:57:00,63.9,18.2,30.08,ENE,72,1.0,4.0,17,0.00,,,0.00,Wunderground v.1.15,2013-01-23 01:57:00,
2013-01-22 19:02:00,64.3,18.5,30.08,ENE,70,1.0,2.0,17,0.00,,,0.00,Wunderground v.1.15,2013-01-23 02:02:00,
2013-01-22 19:07:00,64.6,17.3,30.08,ENE,68,0.0,2.0,16,0.00,,,0.00,Wunderground v.1.15,2013-01-23 02:07:00,
2013-01-22 19:13:00,64.2,18.4,30.08,ENE,68,0.0,1.0,17,0.00,,,0.00,Wunderground v.1.15,2013-01-23 02:13:00,
2013-01-22 19:18:00,63.6,17.9,30.08,ESE,105,1.0,1.0,17,0.00,,,0.00,Wunderground v.1.15,2013-01-23 02:18:00,
2013-01-22 19:23:00,63.2,18.9,30.08,ESE,107,0.0,0.0,18,0.00,,,0.00,Wunderground v.1.15,2013-01-23 02:23:00,
2013-01-22 19:28:00,62.3,18.2,30.08,ESE,107,0.0,0.0,18,0.00,,,0.00,Wunderground v.1.15,2013-01-23 02:28:00,
2013-01-22 19:33:00,60.9,19.5,30.08,ESE,107,0.0,0.0,20,0.00,,,0.00,Wunderground v.1.15,2013-01-23 02:33:00,
2013-01-22 19:38:00,60.2,18.9,30.08,ESE,107,0.0,0.0,20,0.00,,,0.00,Wunderground v.1.15,2013-01-23 02:38:00,
2013-01-22 19:43:00,59.8,18.6,30.08,ESE,113,1.0,1.0,20,0.00,,,0.00,Wunderground v.1.15,2013-01-23 02:43:00,
2013-01-22 19:48:00,60.1,17.6,30.08,ESE,108,0.0,2.0,19,0.00,,,0.00,Wunderground v.1.15,2013-01-23 02:48:00,
2013-01-22 19:53:00,60.5,18.0,30.07,East,98,1.0,2.0,19,0.00,,,0.00,Wunderground v.1.15,2013-01-23 02:53:00,
2013-01-22 19:58:00,60.6,16.8,30.07,East,86,0.0,2.0,18,0.00,,,0.00,Wunderground v.1.15,2013-01-23 02:58:00,
2013-01-22 20:03:00,61.6,16.3,30.07,East,84,3.0,3.0,17,0.00,,,0.00,Wunderground v.1.15,2013-01-23 03:03:00,
2013-01-22 20:08:00,62.8,15.9,30.07,ENE,73,0.0,4.0,16,0.00,,,0.00,Wunderground v.1.15,2013-01-23 03:08:00,
2013-01-22 20:13:00,61.4,17.5,30.07,East,81,0.0,2.0,18,0.00,,,0.00,Wunderground v.1.15,2013-01-23 03:13:00,
2013-01-22 20:18:00,59.8,18.6,30.08,East,81,1.0,2.0,20,0.00,,,0.00,Wunderground v.1.15,2013-01-23 03:18:00,
2013-01-22 20:23:00,58.4,17.4,30.08,WSW,250,0.0,2.0,20,0.00,,,0.00,Wunderground v.1.15,2013-01-23 03:23:00,
2013-01-22 20:28:00,57.6,17.9,30.08,WSW,250,0.0,2.0,21,0.00,,,0.00,Wunderground v.1.15,2013-01-23 03:28:00,
2013-01-22 20:33:00,57.4,18.8,30.08,WSW,250,0.0,0.0,22,0.00,,,0.00,Wunderground v.1.15,2013-01-23 03:33:00,
2013-01-22 20:38:00,56.7,17.1,30.08,WSW,250,0.0,0.0,21,0.00,,,0.00,Wunderground v.1.15,2013-01-23 03:38:00,
2013-01-22 20:43:00,56.1,17.7,30.08,WSW,250,0.0,0.0,22,0.00,,,0.00,Wunderground v.1.15,2013-01-23 03:43:00,
2013-01-22 20:48:00,55.5,18.2,30.08,WSW,250,0.0,0.0,23,0.00,,,0.00,Wunderground v.1.15,2013-01-23 03:48:00,
2013-01-22 20:53:00,54.9,18.7,30.09,WSW,250,0.0,0.0,24,0.00,,,0.00,Wunderground v.1.15,2013-01-23 03:53:00,
2013-01-22 20:58:00,54.3,19.2,30.09,WSW,249,0.0,0.0,25,0.00,,,0.00,Wunderground v.1.15,2013-01-23 03:58:00,
2013-01-22 21:04:00,54.0,20.7,30.09,SW,223,0.0,1.0,27,0.00,,,0.00,Wunderground v.1.15,2013-01-23 04:04:00,
2013-01-22 21:09:00,53.6,21.2,30.09,SW,222,0.0,1.0,28,0.00,,,0.00,Wunderground v.1.15,2013-01-23 04:09:00,
2013-01-22 21:13:00,53.2,24.1,30.09,SW,221,0.0,0.0,32,0.00,,,0.00,Wunderground v.1.15,2013-01-23 04:13:00,
2013-01-22 21:18:00,53.0,23.9,30.09,SW,222,0.0,0.0,32,0.00,,,0.00,Wunderground v.1.15,2013-01-23 04:18:00,
2013-01-22 21:23:00,52.7,22.9,30.09,SW,222,0.0,0.0,31,0.00,,,0.00,Wunderground v.1.15,2013-01-23 04:23:00,
2013-01-22 21:28:00,52.4,21.8,30.09,SE,141,0.0,0.0,30,0.00,,,0.00,Wunderground v.1.15,2013-01-23 04:28:00,
2013-01-22 21:33:00,52.4,21.8,30.09,East,86,1.0,1.0,30,0.00,,,0.00,Wunderground v.1.15,2013-01-23 04:33:00,
2013-01-22 21:38:00,52.8,23.0,30.09,East,91,0.0,1.0,31,0.00,,,0.00,Wunderground v.1.15,2013-01-23 04:38:00,
2013-01-22 21:43:00,53.2,22.5,30.10,East,91,0.0,0.0,30,0.00,,,0.00,Wunderground v.1.15,2013-01-23 04:43:00,
2013-01-22 21:48:00,53.3,22.6,30.10,ESE,110,0.0,1.0,30,0.00,,,0.00,Wunderground v.1.15,2013-01-23 04:48:00,
2013-01-22 21:54:00,53.4,22.7,30.11,SSW,199,0.0,0.0,30,0.00,,,0.00,Wunderground v.1.15,2013-01-23 04:54:00,
2013-01-22 21:59:00,53.3,23.4,30.11,SSW,197,0.0,0.0,31,0.00,,,0.00,Wunderground v.1.15,2013-01-23 04:59:00,
2013-01-22 22:00:00,53.4,23.5,30.10,SSW,197,0.0,0.0,31,0.00,,,0.00,Wunderground v.1.15,2013-01-23 05:00:00,
2013-01-22 22:01:00,53.4,23.5,30.11,SSW,197,0.0,0.0,31,0.00,,,0.00,Wunderground v.1.15,2013-01-23 05:01:00,
2013-01-22 22:03:00,53.4,23.5,30.11,SSW,197,0.0,0.0,31,0.00,,,0.00,Wunderground v.1.15,2013-01-23 05:03:00,
2013-01-22 22:08:00,53.1,22.4,30.11,SSW,197,0.0,0.0,30,0.00,,,0.00,Wunderground v.1.15,2013-01-23 05:08:00,
2013-01-22 22:13:00,52.7,22.9,30.11,SSW,197,0.0,0.0,31,0.00,,,0.00,Wunderground v.1.15,2013-01-23 05:13:00,
2013-01-22 22:18:00,52.2,21.7,30.11,ESE,117,1.0,1.0,30,0.00,,,0.00,Wunderground v.1.15,2013-01-23 05:18:00,
2013-01-22 22:23:00,52.1,22.3,30.11,ESE,113,0.0,1.0,31,0.00,,,0.00,Wunderground v.1.15,2013-01-23 05:23:00,
2013-01-22 22:28:00,52.6,23.5,30.11,ESE,112,0.0,1.0,32,0.00,,,0.00,Wunderground v.1.15,2013-01-23 05:28:00,
2013-01-22 22:33:00,53.2,23.3,30.11,ESE,113,0.0,1.0,31,0.00,,,0.00,Wunderground v.1.15,2013-01-23 05:33:00,
2013-01-22 22:38:00,53.2,23.3,30.11,ESE,113,0.0,1.0,31,0.00,,,0.00,Wunderground v.1.15,2013-01-23 05:38:00,
2013-01-22 22:43:00,52.4,21.8,30.11,ESE,113,0.0,0.0,30,0.00,,,0.00,Wunderground v.1.15,2013-01-23 05:43:00,
2013-01-22 22:48:00,52.1,21.6,30.11,ESE,122,2.0,2.0,30,0.00,,,0.00,Wunderground v.1.15,2013-01-23 05:48:00,
2013-01-22 22:53:00,52.0,21.5,30.11,ESE,115,0.0,1.0,30,0.00,,,0.00,Wunderground v.1.15,2013-01-23 05:53:00,
2013-01-22 22:58:00,51.8,21.3,30.12,ESE,115,0.0,1.0,30,0.00,,,0.00,Wunderground v.1.15,2013-01-23 05:58:00,
2013-01-22 23:03:00,52.0,21.5,30.12,SE,128,0.0,2.0,30,0.00,,,0.00,Wunderground v.1.15,2013-01-23 06:03:00,
2013-01-22 23:08:00,52.2,20.9,30.12,SE,140,0.0,3.0,29,0.00,,,0.00,Wunderground v.1.15,2013-01-23 06:08:00,
2013-01-22 23:13:00,52.5,21.1,30.12,ESE,120,0.0,1.0,29,0.00,,,0.00,Wunderground v.1.15,2013-01-23 06:13:00,
2013-01-22 23:18:00,52.6,20.4,30.12,ESE,113,1.0,1.0,28,0.00,,,0.00,Wunderground v.1.15,2013-01-23 06:18:00,
2013-01-22 23:23:00,52.4,20.2,30.12,East,92,2.0,3.0,28,0.00,,,0.00,Wunderground v.1.15,2013-01-23 06:23:00,
2013-01-22 23:28:00,52.5,20.3,30.12,ESE,113,0.0,3.0,28,0.00,,,0.00,Wunderground v.1.15,2013-01-23 06:28:00,
2013-01-22 23:33:00,52.2,20.0,30.12,ESE,113,0.0,1.0,28,0.00,,,0.00,Wunderground v.1.15,2013-01-23 06:33:00,
2013-01-22 23:38:00,52.0,19.9,30.12,ESE,113,0.0,1.0,28,0.00,,,0.00,Wunderground v.1.15,2013-01-23 06:38:00,
2013-01-22 23:43:00,51.0,20.6,30.13,ESE,113,0.0,1.0,30,0.00,,,0.00,Wunderground v.1.15,2013-01-23 06:43:00,
2013-01-22 23:48:00,51.1,19.9,30.13,ESE,113,0.0,1.0,29,0.00,,,0.00,Wunderground v.1.15,2013-01-23 06:48:00,
2013-01-22 23:53:00,51.1,20.7,30.13,ESE,115,1.0,2.0,30,0.00,,,0.00,Wunderground v.1.15,2013-01-23 06:53:00,
2013-01-22 23:58:00,51.1,20.7,30.13,ESE,122,1.0,2.0,30,0.00,,,0.00,Wunderground v.1.15,2013-01-23 06:58:00,